createdAt,value
2023-10-26T00:01:33.721Z,10.01
2023-10-26T00:04:01.952Z,9.96
2023-10-26T00:06:30.049Z,9.90
2023-10-26T00:08:58.147Z,9.86
2023-10-26T00:11:27.626Z,9.81
2023-10-26T00:13:55.668Z,9.80
2023-10-26T00:16:23.733Z,9.79
2023-10-26T00:22:10.494Z,9.70
2023-10-26T00:24:38.905Z,9.68
2023-10-26T00:27:07.746Z,9.68
2023-10-26T00:29:35.820Z,9.66
2023-10-26T00:32:04.840Z,9.68
2023-10-26T00:34:33.273Z,9.65
2023-10-26T00:37:01.336Z,9.66
2023-10-26T00:39:31.192Z,9.65
2023-10-26T00:41:59.285Z,9.69
2023-10-26T00:44:27.381Z,9.75
2023-10-26T00:46:56.755Z,9.77
2023-10-26T00:49:25.061Z,9.79
2023-10-26T00:51:57.524Z,9.78
2023-10-26T00:54:28.019Z,9.81
2023-10-26T00:56:59.461Z,9.81
2023-10-26T00:59:29.566Z,9.83
2023-10-26T01:01:59.647Z,9.84
2023-10-26T01:04:27.689Z,9.83
2023-10-26T01:06:55.804Z,9.80
2023-10-26T01:09:24.164Z,9.83
2023-10-26T01:11:52.347Z,9.82
2023-10-26T01:14:21.854Z,9.74
2023-10-26T01:16:49.955Z,9.73
2023-10-26T01:19:18.073Z,9.65
2023-10-26T01:21:50.978Z,9.59
2023-10-26T01:24:19.235Z,9.43
2023-10-26T01:26:47.730Z,9.33
2023-10-26T01:29:15.790Z,9.22
2023-10-26T01:31:43.922Z,9.15
2023-10-26T01:34:11.957Z,9.07
2023-10-26T01:36:40.580Z,9.01
2023-10-26T01:39:10.136Z,8.96
2023-10-26T01:41:38.214Z,8.88
2023-10-26T01:44:06.541Z,8.89
2023-10-26T01:46:34.631Z,8.84
2023-10-26T01:49:03.060Z,8.91
2023-10-26T01:51:31.195Z,8.92
2023-10-26T01:53:59.290Z,8.89
2023-10-26T01:56:28.751Z,8.86
2023-10-26T01:58:56.803Z,8.88
2023-10-26T02:01:25.361Z,8.89
2023-10-26T02:03:53.819Z,9.04
2023-10-26T02:06:22.208Z,9.08
2023-10-26T02:08:50.430Z,9.16
2023-10-26T02:11:19.690Z,9.11
2023-10-26T02:13:49.236Z,8.98
2023-10-26T02:16:19.198Z,8.89
2023-10-26T02:18:47.441Z,8.85
2023-10-26T02:21:15.650Z,8.76
2023-10-26T02:23:43.856Z,8.69
2023-10-26T02:26:11.888Z,8.65
2023-10-26T02:28:40.552Z,8.60
2023-10-26T02:31:09.998Z,8.51
2023-10-26T02:33:38.092Z,8.43
2023-10-26T02:36:07.937Z,8.29
2023-10-26T02:38:36.492Z,8.19
2023-10-26T02:41:05.597Z,8.15
2023-10-26T02:43:33.833Z,8.10
2023-10-26T02:46:03.379Z,8.05
2023-10-26T02:48:32.944Z,8.02
2023-10-26T02:51:01.209Z,7.97
2023-10-26T02:53:28.679Z,7.96
2023-10-26T02:55:56.851Z,7.91
2023-10-26T02:58:24.987Z,7.83
2023-10-26T03:00:55.164Z,7.82
2023-10-26T03:03:24.387Z,7.69
2023-10-26T03:05:54.729Z,7.74
2023-10-26T03:08:22.848Z,7.65
2023-10-26T03:10:50.852Z,7.55
2023-10-26T03:13:18.902Z,7.49
2023-10-26T03:15:46.955Z,7.39
2023-10-26T03:18:16.145Z,7.41
2023-10-26T03:20:44.750Z,7.44
2023-10-26T03:23:14.295Z,7.49
2023-10-26T03:25:42.340Z,7.54
2023-10-26T03:28:10.626Z,7.49
2023-10-26T03:30:39.321Z,7.45
2023-10-26T03:33:07.450Z,7.42
2023-10-26T03:35:36.486Z,7.38
2023-10-26T03:38:04.562Z,7.26
2023-10-26T03:40:35.997Z,7.26
2023-10-26T03:43:04.255Z,7.22
2023-10-26T03:45:32.880Z,7.13
2023-10-26T03:48:01.704Z,7.13
2023-10-26T03:50:30.149Z,7.13
2023-10-26T03:52:58.217Z,7.21
2023-10-26T03:55:26.306Z,7.12
2023-10-26T03:57:55.850Z,7.23
2023-10-26T04:00:24.069Z,7.24
2023-10-26T04:02:52.218Z,7.23
2023-10-26T04:05:20.290Z,6.99
2023-10-26T04:07:48.278Z,7.23
2023-10-26T04:10:16.327Z,7.23
2023-10-26T04:12:44.366Z,7.35
2023-10-26T04:15:13.826Z,7.48
2023-10-26T04:17:41.935Z,7.61
2023-10-26T04:20:11.546Z,7.59
2023-10-26T04:22:39.609Z,7.62
2023-10-26T04:25:08.146Z,7.66
2023-10-26T04:27:36.735Z,7.55
2023-10-26T04:30:06.271Z,7.55
2023-10-26T04:32:35.787Z,7.46
2023-10-26T04:35:03.922Z,7.37
2023-10-26T04:37:32.739Z,7.28
2023-10-26T04:40:02.355Z,7.16
2023-10-26T04:42:31.818Z,7.15
2023-10-26T04:44:59.963Z,7.08
2023-10-26T04:47:28.061Z,7.07
2023-10-26T04:49:57.477Z,7.04
2023-10-26T04:52:25.627Z,6.94
2023-10-26T04:54:53.649Z,6.89
2023-10-26T04:57:21.722Z,6.85
2023-10-26T04:59:49.988Z,6.83
2023-10-26T05:02:18.023Z,6.81
2023-10-26T05:04:46.566Z,6.76
2023-10-26T05:07:16.006Z,6.74
2023-10-26T05:09:44.000Z,6.68
2023-10-26T05:12:12.123Z,6.64
2023-10-26T05:14:40.337Z,6.77
2023-10-26T05:17:08.465Z,6.74
2023-10-26T05:23:10.443Z,6.61
2023-10-26T05:25:38.683Z,6.64
2023-10-26T05:28:06.708Z,6.61
2023-10-26T05:30:35.372Z,6.55
2023-10-26T05:33:03.500Z,6.52
2023-10-26T05:35:31.561Z,6.52
2023-10-26T05:37:59.687Z,6.43
2023-10-26T05:40:29.076Z,6.35
2023-10-26T05:42:57.153Z,6.31
2023-10-26T05:45:25.211Z,6.27
2023-10-26T05:47:54.134Z,6.23
2023-10-26T05:50:22.404Z,6.23
2023-10-26T05:52:50.471Z,6.18
2023-10-26T05:55:18.520Z,6.14
2023-10-26T05:57:47.979Z,6.11
2023-10-26T06:00:16.831Z,6.11
2023-10-26T06:02:44.939Z,6.15
2023-10-26T06:05:13.035Z,6.11
2023-10-26T06:07:41.102Z,6.12
2023-10-26T06:10:11.015Z,6.14
2023-10-26T06:12:39.374Z,6.17
2023-10-26T06:15:09.729Z,6.20
2023-10-26T06:17:37.863Z,6.23
2023-10-26T06:20:07.186Z,6.33
2023-10-26T06:22:35.232Z,6.40
2023-10-26T06:25:06.593Z,6.50
2023-10-26T06:27:34.696Z,6.55
2023-10-26T06:30:02.826Z,6.70
2023-10-26T06:32:32.201Z,6.84
2023-10-26T06:35:00.289Z,7.02
2023-10-26T06:37:29.420Z,7.13
2023-10-26T06:39:57.429Z,7.25
2023-10-26T06:42:25.516Z,7.34
2023-10-26T06:45:00.496Z,7.46
2023-10-26T06:47:28.893Z,7.56
2023-10-26T06:49:58.294Z,7.65
2023-10-26T06:52:26.669Z,7.73
2023-10-26T06:54:54.711Z,7.82
2023-10-26T06:57:22.824Z,7.88
2023-10-26T06:59:50.979Z,7.95
2023-10-26T07:02:19.083Z,7.99
2023-10-26T07:04:47.403Z,8.05
2023-10-26T07:07:17.584Z,8.10
2023-10-26T07:09:45.716Z,8.15
2023-10-26T07:12:13.828Z,8.23
2023-10-26T07:14:42.218Z,8.30
2023-10-26T07:17:10.424Z,8.37
2023-10-26T07:19:39.267Z,8.45
2023-10-26T07:22:07.930Z,8.55
2023-10-26T07:24:37.868Z,8.70
2023-10-26T07:27:06.489Z,8.82
2023-10-26T07:29:35.237Z,8.98
2023-10-26T07:32:03.348Z,9.07
2023-10-26T07:34:31.443Z,9.20
2023-10-26T07:37:00.085Z,9.29
2023-10-26T07:39:46.117Z,9.51
2023-10-26T07:42:17.847Z,9.61
2023-10-26T07:44:46.949Z,9.66
2023-10-26T07:47:15.322Z,9.75
2023-10-26T07:49:43.552Z,9.81
2023-10-26T07:52:11.705Z,9.77
2023-10-26T07:54:39.809Z,9.86
2023-10-26T07:57:07.891Z,9.88
2023-10-26T07:59:37.395Z,9.99
2023-10-26T08:02:05.875Z,10.17
2023-10-26T08:04:34.429Z,10.31
2023-10-26T08:07:02.696Z,10.54
2023-10-26T08:09:32.962Z,10.79
2023-10-26T08:12:01.072Z,10.91
2023-10-26T08:16:08.838Z,11.07
2023-10-26T08:17:20.565Z,11.20
2023-10-26T08:19:52.493Z,11.30
2023-10-26T08:22:21.972Z,11.51
2023-10-26T08:24:50.135Z,11.74
2023-10-26T08:27:18.233Z,12.15
2023-10-26T08:29:46.917Z,12.39
2023-10-26T08:32:14.990Z,12.85
2023-10-26T08:34:45.908Z,12.83
2023-10-26T08:37:14.427Z,12.61
2023-10-26T08:39:43.072Z,12.60
2023-10-26T08:42:13.446Z,12.39
2023-10-26T08:44:43.787Z,12.45
2023-10-26T08:47:15.935Z,12.27
2023-10-26T08:49:55.850Z,12.31
2023-10-26T08:52:28.452Z,12.19
2023-10-26T08:54:57.118Z,12.25
2023-10-26T08:57:25.188Z,12.33
2023-10-26T08:59:53.507Z,11.89
2023-10-26T09:02:21.746Z,11.72
2023-10-26T09:05:11.645Z,11.60
2023-10-26T09:07:40.718Z,11.27
2023-10-26T09:10:09.723Z,11.18
2023-10-26T09:12:37.851Z,11.12
2023-10-26T09:15:07.841Z,10.94
2023-10-26T09:17:36.961Z,10.92
2023-10-26T09:20:21.977Z,10.92
2023-10-26T09:22:50.567Z,10.75
2023-10-26T09:25:19.570Z,10.67
2023-10-26T09:27:48.591Z,10.56
2023-10-26T09:30:27.012Z,10.33
2023-10-26T09:32:55.153Z,10.10
2023-10-26T09:35:28.743Z,9.84
2023-10-26T09:37:57.412Z,9.60
2023-10-26T09:40:26.581Z,9.45
2023-10-26T09:42:56.983Z,9.37
2023-10-26T09:45:25.396Z,9.42
2023-10-26T09:47:53.557Z,9.49
2023-10-26T09:50:22.086Z,9.54
2023-10-26T09:52:52.434Z,9.54
2023-10-26T09:55:21.330Z,9.60
2023-10-26T09:57:58.288Z,9.56
2023-10-26T10:00:32.136Z,9.50
2023-10-26T10:03:13.767Z,9.48
2023-10-26T10:05:43.946Z,9.49
2023-10-26T10:08:13.821Z,9.32
2023-10-26T10:11:15.708Z,9.54
2023-10-26T10:13:44.007Z,9.82
2023-10-26T10:16:47.143Z,9.90
2023-10-26T10:19:19.644Z,10.13
2023-10-26T10:24:10.784Z,9.92
2023-10-26T10:27:11.811Z,9.91
2023-10-26T10:29:41.884Z,9.82
2023-10-26T10:32:11.650Z,9.83
2023-10-26T10:34:45.596Z,10.05
2023-10-26T10:37:14.246Z,10.28
2023-10-26T10:40:12.287Z,10.40
2023-10-26T10:42:47.129Z,10.68
2023-10-26T10:45:15.415Z,10.91
2023-10-26T10:47:44.696Z,10.95
2023-10-26T10:50:17.067Z,10.96
2023-10-26T10:52:45.241Z,10.97
2023-10-26T10:55:13.532Z,11.09
2023-10-26T10:57:56.872Z,10.81
2023-10-26T11:00:25.814Z,10.83
2023-10-26T11:02:58.270Z,10.73
2023-10-26T11:05:38.622Z,10.81
2023-10-26T11:08:07.701Z,10.90
2023-10-26T11:10:35.986Z,10.93
2023-10-26T11:13:05.928Z,10.79
2023-10-26T11:15:35.080Z,10.72
2023-10-26T11:18:04.409Z,10.64
2023-10-26T11:20:41.842Z,10.50
2023-10-26T11:23:11.215Z,10.50
2023-10-26T11:25:40.132Z,10.42
2023-10-26T11:28:10.717Z,10.54
2023-10-26T11:30:48.122Z,10.59
2023-10-26T11:33:33.308Z,10.71
2023-10-26T11:36:01.984Z,10.72
2023-10-26T11:38:30.100Z,10.81
2023-10-26T11:40:58.263Z,10.92
2023-10-26T11:43:34.495Z,11.04
2023-10-26T11:46:04.512Z,10.96
2023-10-26T11:48:34.515Z,10.81
2023-10-26T11:51:04.721Z,10.72
2023-10-26T11:53:32.828Z,10.60
2023-10-26T11:56:01.553Z,10.35
2023-10-26T11:58:29.758Z,10.53
2023-10-26T12:00:59.283Z,10.64
2023-10-26T12:03:28.076Z,10.73
2023-10-26T12:05:57.509Z,10.85
2023-10-26T12:08:26.424Z,10.75
2023-10-26T12:10:54.550Z,10.88
2023-10-26T12:13:22.751Z,10.83
2023-10-26T12:15:51.021Z,10.80
2023-10-26T12:18:20.431Z,10.81
2023-10-26T12:20:48.579Z,10.96
2023-10-26T12:23:16.628Z,10.86
2023-10-26T12:25:44.690Z,10.80
2023-10-26T12:28:22.096Z,10.64
2023-10-26T12:30:52.505Z,10.77
2023-10-26T12:33:22.729Z,10.83
2023-10-26T12:35:51.771Z,10.84
2023-10-26T12:38:20.844Z,10.83
2023-10-26T12:40:49.666Z,10.88
2023-10-26T12:43:17.858Z,10.70
2023-10-26T12:45:45.965Z,10.72
2023-10-26T12:48:14.053Z,10.73
2023-10-26T12:50:43.509Z,10.54
2023-10-26T12:53:11.831Z,10.90
2023-10-26T12:55:39.926Z,10.86
2023-10-26T12:58:07.960Z,10.86
2023-10-26T13:00:36.223Z,11.09
2023-10-26T13:03:04.522Z,10.96
2023-10-26T13:05:32.605Z,10.98
2023-10-26T13:08:02.048Z,10.98
2023-10-26T13:10:32.267Z,10.97
2023-10-26T13:13:00.493Z,11.12
2023-10-26T13:15:28.691Z,11.12
2023-10-26T13:17:56.874Z,11.22
2023-10-26T13:20:27.064Z,11.15
2023-10-26T13:22:55.284Z,11.19
2023-10-26T13:25:26.946Z,11.22
2023-10-26T13:27:55.697Z,11.26
2023-10-26T13:30:24.023Z,11.27
2023-10-26T13:32:52.198Z,11.22
2023-10-26T13:35:20.670Z,11.32
2023-10-26T13:37:48.881Z,11.41
2023-10-26T13:40:17.066Z,11.37
2023-10-26T13:42:46.797Z,11.39
2023-10-26T13:45:15.102Z,11.39
2023-10-26T13:47:43.320Z,11.40
2023-10-26T13:50:11.769Z,11.39
2023-10-26T13:52:39.998Z,11.45
2023-10-26T13:55:08.724Z,11.40
2023-10-26T13:57:37.016Z,11.45
2023-10-26T14:00:09.975Z,11.45
2023-10-26T14:02:41.227Z,11.52
2023-10-26T14:05:24.697Z,11.50
2023-10-26T14:07:58.709Z,11.52
2023-10-26T14:10:27.285Z,11.53
2023-10-26T14:12:55.653Z,11.51
2023-10-26T14:15:25.519Z,11.50
2023-10-26T14:17:53.664Z,11.54
2023-10-26T14:20:21.942Z,11.56
2023-10-26T14:22:49.956Z,11.59
2023-10-26T14:25:18.119Z,11.53
2023-10-26T14:27:46.339Z,11.59
2023-10-26T14:30:14.856Z,11.60
2023-10-26T14:32:44.309Z,11.66
2023-10-26T14:35:12.960Z,11.66
2023-10-26T14:37:41.044Z,11.77
2023-10-26T14:40:10.210Z,11.82
2023-10-26T14:42:38.438Z,11.89
2023-10-26T14:45:07.606Z,11.93
2023-10-26T14:47:35.787Z,11.92
2023-10-26T14:50:05.838Z,11.91
2023-10-26T14:52:33.968Z,11.97
2023-10-26T14:55:02.604Z,12.01
2023-10-26T14:57:30.837Z,11.98
2023-10-26T14:59:59.157Z,12.02
2023-10-26T15:02:27.221Z,12.10
2023-10-26T15:04:55.455Z,12.18
2023-10-26T15:07:24.894Z,12.26
2023-10-26T15:10:20.825Z,12.16
2023-10-26T15:12:41.057Z,12.16
2023-10-26T15:15:09.717Z,12.16
2023-10-26T15:17:37.830Z,12.15
2023-10-26T15:20:07.166Z,12.11
2023-10-26T15:25:10.730Z,11.94
2023-10-26T15:27:38.856Z,11.92
2023-10-26T15:30:08.179Z,11.90
2023-10-26T15:32:36.485Z,11.93
2023-10-26T15:35:04.840Z,11.92
2023-10-26T15:37:32.943Z,11.94
2023-10-26T15:40:01.279Z,11.91
2023-10-26T15:42:30.756Z,11.91
2023-10-26T15:44:58.972Z,11.89
2023-10-26T15:47:27.226Z,11.87
2023-10-26T15:49:59.485Z,11.87
2023-10-26T15:52:27.890Z,11.88
2023-10-26T15:54:56.288Z,11.86
2023-10-26T15:57:25.257Z,11.85
2023-10-26T15:59:54.954Z,11.86
2023-10-26T16:02:23.244Z,11.82
2023-10-26T16:04:51.643Z,11.81
2023-10-26T16:07:20.004Z,11.80
2023-10-26T16:09:48.153Z,11.79
2023-10-26T16:12:16.989Z,11.77
2023-10-26T16:14:46.112Z,11.75
2023-10-26T16:17:15.751Z,11.74
2023-10-26T16:19:43.994Z,11.64
2023-10-26T16:22:12.079Z,11.66
2023-10-26T16:24:40.386Z,11.53
2023-10-26T16:27:08.538Z,11.51
2023-10-26T16:29:38.098Z,11.48
2023-10-26T16:32:06.896Z,11.38
2023-10-26T16:34:36.340Z,11.37
2023-10-26T16:37:06.850Z,11.35
2023-10-26T16:39:36.468Z,11.30
2023-10-26T16:42:06.801Z,11.30
2023-10-26T16:44:34.897Z,11.29
2023-10-26T16:47:05.886Z,11.28
2023-10-26T16:49:34.032Z,11.22
2023-10-26T16:52:03.716Z,11.23
2023-10-26T16:54:31.834Z,11.23
2023-10-26T16:56:59.932Z,11.21
2023-10-26T16:59:28.143Z,11.20
2023-10-26T17:01:56.375Z,11.21
2023-10-26T17:04:24.529Z,11.18
2023-10-26T17:06:55.211Z,11.19
2023-10-26T17:09:24.920Z,11.17
2023-10-26T17:11:53.032Z,11.18
2023-10-26T17:14:21.288Z,11.13
2023-10-26T17:16:49.484Z,11.11
2023-10-26T17:19:17.635Z,11.08
2023-10-26T17:21:45.778Z,11.07
2023-10-26T17:24:14.521Z,11.04
2023-10-26T17:26:45.428Z,11.03
2023-10-26T17:29:13.722Z,11.04
2023-10-26T17:31:42.088Z,11.01
2023-10-26T17:34:12.522Z,10.85
2023-10-26T17:36:41.978Z,10.96
2023-10-26T17:39:11.467Z,10.96
2023-10-26T17:41:40.240Z,10.91
2023-10-26T17:44:09.932Z,10.87
2023-10-26T17:46:38.245Z,10.83
2023-10-26T17:49:06.712Z,10.81
2023-10-26T17:51:34.832Z,10.79
2023-10-26T17:54:03.231Z,10.75
2023-10-26T17:56:34.080Z,10.70
2023-10-26T17:59:02.378Z,10.69
2023-10-26T18:01:32.030Z,10.68
2023-10-26T18:04:00.612Z,10.64
2023-10-26T18:06:29.150Z,10.63
2023-10-26T18:08:57.657Z,10.65
2023-10-26T18:11:25.854Z,10.90
2023-10-26T18:13:53.997Z,10.92
2023-10-26T18:16:22.139Z,10.90
2023-10-26T18:18:51.822Z,10.87
2023-10-26T18:21:20.460Z,10.83
2023-10-26T18:23:48.648Z,10.78
2023-10-26T18:26:16.858Z,10.79
2023-10-26T18:28:45.789Z,10.86
2023-10-26T18:31:17.140Z,11.00
2023-10-26T18:33:46.987Z,11.07
2023-10-26T18:36:18.229Z,11.08
2023-10-26T18:38:47.100Z,11.03
2023-10-26T18:41:19.734Z,11.03
2023-10-26T18:43:49.802Z,11.05
2023-10-26T18:46:18.286Z,11.01
2023-10-26T18:48:46.646Z,10.99
2023-10-26T18:51:16.545Z,10.95
2023-10-26T18:53:46.122Z,10.95
2023-10-26T18:56:15.338Z,10.92
2023-10-26T18:58:44.048Z,10.85
2023-10-26T19:01:13.595Z,10.82
2023-10-26T19:03:53.764Z,10.80
2023-10-26T19:06:31.494Z,10.75
2023-10-26T19:09:00.417Z,10.69
2023-10-26T19:11:29.132Z,10.64
2023-10-26T19:13:57.679Z,10.60
2023-10-26T19:16:26.176Z,10.50
2023-10-26T19:18:55.533Z,10.42
2023-10-26T19:21:24.079Z,10.32
2023-10-26T19:23:53.669Z,10.31
2023-10-26T19:26:21.877Z,10.27
2023-10-26T19:28:49.773Z,10.26
2023-10-26T19:31:18.173Z,10.20
2023-10-26T19:33:47.987Z,10.22
2023-10-26T19:36:16.461Z,10.18
2023-10-26T19:38:44.825Z,10.06
2023-10-26T19:41:16.363Z,10.01
2023-10-26T19:43:44.597Z,9.94
2023-10-26T19:46:13.606Z,9.92
2023-10-26T19:48:42.077Z,9.88
2023-10-26T19:51:10.222Z,9.83
2023-10-26T19:53:38.479Z,9.74
2023-10-26T19:56:07.396Z,9.74
2023-10-26T19:58:36.942Z,9.76
2023-10-26T20:01:06.096Z,9.75
2023-10-26T20:03:34.322Z,9.80
2023-10-26T20:06:06.825Z,9.76
2023-10-26T20:08:36.933Z,9.71
2023-10-26T20:11:05.814Z,9.65
2023-10-26T20:13:34.296Z,9.63
2023-10-26T20:16:04.097Z,9.57
2023-10-26T20:18:39.775Z,9.54
2023-10-26T20:21:08.410Z,9.52
2023-10-26T20:26:10.795Z,9.38
2023-10-26T20:28:39.531Z,9.33
2023-10-26T20:31:08.204Z,9.29
2023-10-26T20:33:36.485Z,9.22
2023-10-26T20:36:05.460Z,9.25
2023-10-26T20:38:34.058Z,9.25
2023-10-26T20:41:02.522Z,9.20
2023-10-26T20:43:32.008Z,9.13
2023-10-26T20:46:02.144Z,9.09
2023-10-26T20:48:30.694Z,9.11
2023-10-26T20:50:59.904Z,9.01
2023-10-26T20:53:29.129Z,8.92
2023-10-26T20:56:00.879Z,8.94
2023-10-26T20:58:30.080Z,8.92
2023-10-26T21:00:59.909Z,8.87
2023-10-26T21:03:28.292Z,8.85
2023-10-26T21:06:04.117Z,8.78
2023-10-26T21:08:32.304Z,8.75
2023-10-26T21:11:00.942Z,8.72
2023-10-26T21:13:29.675Z,8.61
2023-10-26T21:16:00.646Z,8.62
2023-10-26T21:18:28.938Z,8.57
2023-10-26T21:20:57.297Z,8.53
2023-10-26T21:23:25.391Z,8.50
2023-10-26T21:25:53.432Z,8.47
2023-10-26T21:28:21.519Z,8.42
2023-10-26T21:30:50.704Z,8.42
2023-10-26T21:33:20.243Z,8.43
2023-10-26T21:35:49.316Z,8.39
2023-10-26T21:38:18.194Z,8.37
2023-10-26T21:40:46.846Z,8.38
2023-10-26T21:43:15.086Z,8.33
2023-10-26T21:45:45.110Z,8.32
2023-10-26T21:48:14.205Z,8.30
2023-10-26T21:50:43.682Z,8.28
2023-10-26T21:53:13.340Z,8.27
2023-10-26T21:55:42.461Z,8.24
2023-10-26T21:58:11.410Z,8.24
2023-10-26T22:00:39.966Z,8.28
2023-10-26T22:03:08.821Z,8.28
2023-10-26T22:05:37.099Z,8.31
2023-10-26T22:08:06.660Z,8.27
2023-10-26T22:10:35.489Z,8.18
2023-10-26T22:13:04.228Z,8.23
2023-10-26T22:15:32.460Z,8.22
2023-10-26T22:18:00.607Z,8.25
2023-10-26T22:20:28.868Z,8.21
2023-10-26T22:22:57.088Z,8.21
2023-10-26T22:25:26.708Z,8.22
2023-10-26T22:27:54.863Z,8.21
2023-10-26T22:30:23.543Z,8.22
2023-10-26T22:32:51.806Z,8.22
2023-10-26T22:35:20.083Z,8.23
2023-10-26T22:37:48.195Z,8.26
2023-10-26T22:40:16.538Z,8.20
2023-10-26T22:42:46.556Z,8.29
2023-10-26T22:45:15.380Z,8.30
2023-10-26T22:47:44.438Z,8.28
2023-10-26T22:50:12.648Z,8.31
2023-10-26T22:52:40.807Z,8.33
2023-10-26T22:55:09.775Z,8.35
2023-10-26T22:57:37.954Z,8.34
2023-10-26T23:00:11.850Z,8.34
2023-10-26T23:02:40.119Z,8.37
2023-10-26T23:05:08.979Z,8.36
2023-10-26T23:07:37.584Z,8.34
2023-10-26T23:10:06.934Z,8.35
2023-10-26T23:12:35.034Z,8.33
2023-10-26T23:15:03.571Z,8.34
2023-10-26T23:17:34.210Z,8.33
2023-10-26T23:20:02.408Z,8.34
2023-10-26T23:22:30.645Z,8.34
2023-10-26T23:24:58.762Z,8.32
2023-10-26T23:27:26.807Z,8.34
2023-10-26T23:30:00.883Z,8.34
2023-10-26T23:32:29.346Z,8.35
2023-10-26T23:34:58.941Z,8.34
2023-10-26T23:37:27.097Z,8.33
2023-10-26T23:39:55.262Z,8.35
2023-10-26T23:42:23.482Z,8.37
2023-10-26T23:44:51.584Z,8.37
2023-10-26T23:47:19.631Z,8.19
2023-10-26T23:49:49.573Z,8.37
2023-10-26T23:52:19.126Z,8.38
2023-10-26T23:54:47.471Z,8.39
2023-10-26T23:57:15.616Z,8.38
2023-10-26T23:59:43.974Z,8.38
